Portada
METAR-TAF:

METAR-TAF

Aeroports :

Calcuta, Índia

latitud: 22-39N, longitud: 088-27E, altitud: 4 m

Observació

L'informe es va fer fa 32 minuts, a les 03:00 UTC
Vent 5 kt del Nord-Est
Temperatura 28°C
Humitat 74%
Pressió 1014 hPa
Visibilitat: 3100 m
Escasses núvols a una alçada de 2000 ft
calitja

METAR: VECC 150300Z 04005KT 3100 HZ FEW020 28/23 Q1014 NOSIG

Hora: 09:02 (03:32 UTC)

Pronòstic

L'informe es va fer fa 1 hora i 32 minuts, a les 02:00 UTC
Pronòstic vàlid del 15 a les 03 UTC al 15 a les 12 UTC
Vent 7 kt del Nord
Visibilitat: 3500 m
Núvols disperses a una alçada de 2000 ft
calitja

TAF: VECC 150200Z 1503/1512 01007KT 3500 HZ SCT020

Observacions i pronòstics meteorològics de més de 4000 aeroports (METAR i TAF).

Les estacions disponibles són els punts grocs i vermells al mapa.

Posi el ratolí al punt desitjat per veure el nom de l'estació.

Feu clic per veure les observacions i els pronòstics meteorològics.

Per canviar el mapa: feu clic els botons verds amb una creu de color negre per apropar; al botó verd amb un guió per allunyar la imatge; o en les fletxes verdes per a mapes adjacents.


METAR-TAF: